Kezdőlap
METAR-TAF:

METAR-TAF

Repülőterek :

Peer, Belgium

földrajzi szélesség: 51-10N, földrajzi hosszúság: 005-28E, magasság: 55 m

Jelenlegi meteorológiai megfigyelések

A jelentés 15 perccel ezelõtt készült, 14:55 UTC
Dél-délnyugati szél 11 kt
Hőmérséklet 8°C
Páratartalom 66%
Légköri nyomás 1003 hPa
Látótávolság 10 km, vagy több

METAR: EBBL 151455Z AUTO 21011KT 9999 FEW036/// 08/02 Q1003 BLU

Idő: 16:10 (15:10 UTC)

Előrejelzés

A jelentés 3 órával és 29 perccel ezelõtt készült, 11:41 UTC
Az előrejelzés 15-én 13 óra UTC és 15-én 22 óra UTC között érvényes
Délnyugati szél 12 kt széllökések: 25 kt
Látótávolság: 7000 m
Kevés felhő 2000 lábon
Szórványos felhőzet 25000 lábon
15-én 14 óra UTC és 15-én 16 óra UTC között fokozatosan kialakuló
Szórványos felhőzet 23000 lábon

TAF: EBBL 151141Z 1513/1522 23512G25KT 7000 FEW020 SCT250 BECMG 1514/1516 SCT230

Meteorológiai megfigyelések és előrejelzések több, mint 4000 repülőtéren (METAR és TAF jelentéseket).

A térképen piros és sárga pontok jelzik az elérhető meteorológiai állomásokat.

Mozgassa az egeret a pont fölött, hogy megjelenjen az állomás neve.

Azután kattintson az időjárási megfigyelések és előrejelzések megtekintéséhez.

A térkép megváltoztatása: kattintson a fekete keresztel jelölt zöld gombra ráközelítéshez, a vonallal jelölt zöld gombra távolításhoz, vagy a zöld nyilakra a szomszédos térképek eléréséhez.


METAR-TAF: